Time;durP1;ratioP1;P1;durP2;ratioP2;P2;SDS_P1;SDS_P2;PMS_P1;PMS_P2;Temp;Humidity;BMP_temperature;BMP_pressure;BME280_temperature;BME280_humidity;BME280_pressure;Samples;Min_cycle;Max_cycle;Signal;HPM_P1;HPM_P2
2023/05/11 00:00:08;;;;;;;106.85;37.05;;;;;;;14.81;100.00;101353.97;4965180;28;20853;-73
2023/05/11 00:02:36;;;;;;;73.18;29.52;;;;;;;14.64;100.00;101357.00;4953972;28;20083;-72
2023/05/11 00:05:01;;;;;;;107.05;36.25;;;;;;;14.54;100.00;101361.31;4965824;28;20039;-73
2023/05/11 00:07:27;;;;;;;72.57;30.92;;;;;;;14.56;100.00;101362.03;4973487;28;20034;-73
2023/05/11 00:09:56;;;;;;;110.43;35.47;;;;;;;14.64;100.00;101363.22;4960285;28;20043;-72
2023/05/11 00:12:21;;;;;;;96.60;36.25;;;;;;;14.62;100.00;101364.31;4980488;28;20030;-73
2023/05/11 00:14:47;;;;;;;70.75;29.27;;;;;;;14.65;100.00;101361.38;4963249;28;20039;-73
2023/05/11 00:17:12;;;;;;;147.77;40.85;;;;;;;14.73;100.00;101353.66;4955267;28;20031;-72
2023/05/11 00:19:38;;;;;;;118.40;37.58;;;;;;;14.66;100.00;101345.19;4963482;28;20364;-74
2023/05/11 00:22:08;;;;;;;63.33;25.83;;;;;;;14.44;100.00;101351.19;4968947;28;20257;-74
2023/05/11 00:24:34;;;;;;;73.90;29.40;;;;;;;14.48;100.00;101347.38;4978406;28;20043;-74
2023/05/11 00:27:00;;;;;;;96.43;33.42;;;;;;;14.38;100.00;101348.97;4964695;28;20043;-72
2023/05/11 00:29:25;;;;;;;76.60;28.95;;;;;;;14.44;100.00;101343.16;4962437;28;20050;-73
2023/05/11 00:31:51;;;;;;;66.28;28.60;;;;;;;14.38;100.00;101340.06;4966062;28;20847;-73
2023/05/11 00:34:20;;;;;;;83.35;32.38;;;;;;;14.40;100.00;101335.41;4983250;28;20160;-72
2023/05/11 00:36:45;;;;;;;82.85;32.28;;;;;;;14.48;100.00;101339.31;4967259;28;20039;-72
2023/05/11 00:39:11;;;;;;;92.95;38.03;;;;;;;14.60;100.00;101331.34;4973998;28;20035;-72
2023/05/11 00:41:37;;;;;;;95.13;36.80;;;;;;;14.45;100.00;101344.84;4987730;28;20031;-73
2023/05/11 00:44:05;;;;;;;89.53;37.33;;;;;;;14.43;100.00;101330.69;4960445;28;20054;-72
2023/05/11 00:46:32;;;;;;;126.40;40.05;;;;;;;14.49;100.00;101350.91;4985854;28;20062;-73
2023/05/11 00:48:58;;;;;;;111.07;42.40;;;;;;;14.59;100.00;101343.03;4974808;28;20031;-73
2023/05/11 00:51:24;;;;;;;78.20;34.70;;;;;;;14.53;100.00;101338.13;4974347;28;20363;-72
2023/05/11 00:53:50;;;;;;;97.00;37.58;;;;;;;14.60;100.00;101340.25;4969094;28;20097;-73
2023/05/11 00:56:16;;;;;;;107.43;42.38;;;;;;;14.62;100.00;101340.16;4965605;28;20034;-72
2023/05/11 00:58:49;;;;;;;178.27;53.83;;;;;;;14.57;100.00;101339.63;4972273;28;20039;-73
2023/05/11 01:01:17;;;;;;;113.05;46.30;;;;;;;14.42;100.00;101342.41;4972562;28;20562;-74
2023/05/11 01:03:43;;;;;;;161.73;52.88;;;;;;;14.43;100.00;101337.91;4980418;28;20036;-73
2023/05/11 01:06:23;;;;;;;138.32;55.78;;;;;;;14.42;100.00;101331.69;4968533;28;20501;-72
2023/05/11 01:09:01;;;;;;;129.13;52.30;;;;;;;14.32;100.00;101335.13;4989350;28;20088;-73
2023/05/11 01:11:57;;;;;;;141.73;56.33;;;;;;;14.37;100.00;101338.34;4964828;28;20046;-73
2023/05/11 01:14:31;;;;;;;140.35;56.65;;;;;;;14.51;100.00;101332.88;4959206;28;20088;-72
2023/05/11 01:17:10;;;;;;;140.88;56.65;;;;;;;14.62;100.00;101345.53;4941553;28;20138;-73
2023/05/11 01:20:01;;;;;;;167.32;61.17;;;;;;;14.64;100.00;101347.13;4946879;28;20063;-73
2023/05/11 01:22:47;;;;;;;168.23;58.90;;;;;;;14.55;100.00;101346.91;4952793;28;20557;-73
2023/05/11 01:25:34;;;;;;;166.93;62.10;;;;;;;14.52;100.00;101356.06;4961828;28;20145;-75
2023/05/11 01:28:25;;;;;;;188.02;66.72;;;;;;;14.56;100.00;101359.34;4952499;28;20050;-74
2023/05/11 01:30:56;;;;;;;191.90;68.22;;;;;;;14.52;100.00;101361.44;4952097;28;20054;-75
2023/05/11 01:33:29;;;;;;;197.00;69.00;;;;;;;14.56;100.00;101354.88;4961492;28;20733;-73
2023/05/11 01:36:03;;;;;;;187.35;64.85;;;;;;;14.62;100.00;101361.63;4953139;28;20150;-74
2023/05/11 01:38:35;;;;;;;221.13;75.50;;;;;;;14.64;100.00;101359.69;4950502;28;20058;-74
2023/05/11 01:41:07;;;;;;;153.25;65.53;;;;;;;14.62;100.00;101373.22;4953327;28;20116;-74
2023/05/11 01:43:36;;;;;;;203.55;70.28;;;;;;;14.66;100.00;101368.47;4934646;28;20922;-75
2023/05/11 01:46:06;;;;;;;304.58;84.85;;;;;;;14.73;100.00;101367.06;4954598;28;20130;-75
2023/05/11 01:48:37;;;;;;;173.70;64.00;;;;;;;14.69;100.00;101363.75;4955419;28;20122;-75
2023/05/11 01:51:06;;;;;;;255.85;79.00;;;;;;;14.47;100.00;101359.06;4956628;28;20137;-74
2023/05/11 01:53:37;;;;;;;188.45;64.75;;;;;;;14.40;100.00;101368.47;4951670;28;20746;-75
2023/05/11 01:56:11;;;;;;;171.35;64.68;;;;;;;14.42;100.00;101361.19;4979333;28;20089;-74
2023/05/11 01:58:40;;;;;;;251.65;80.38;;;;;;;14.43;100.00;101365.59;4964263;28;20034;-75
2023/05/11 02:01:07;;;;;;;212.32;72.15;;;;;;;14.46;100.00;101364.53;4962898;28;20035;-74
2023/05/11 02:03:39;;;;;;;236.13;75.18;;;;;;;14.45;100.00;101365.47;4965295;28;20043;-73
2023/05/11 02:06:12;;;;;;;234.20;72.68;;;;;;;14.37;100.00;101367.84;4961104;28;20241;-74
2023/05/11 02:08:40;;;;;;;221.20;70.97;;;;;;;14.37;100.00;101363.34;4970010;28;20208;-74
2023/05/11 02:11:09;;;;;;;250.32;79.43;;;;;;;14.48;100.00;101365.28;4959125;28;20039;-74
2023/05/11 02:13:37;;;;;;;282.13;82.82;;;;;;;14.47;100.00;101361.75;4979730;28;20059;-74
2023/05/11 02:16:07;;;;;;;340.33;91.78;;;;;;;14.37;100.00;101359.81;4978229;28;20046;-74
2023/05/11 02:18:34;;;;;;;248.57;78.47;;;;;;;14.41;100.00;101361.31;4960598;28;20517;-75
2023/05/11 02:21:02;;;;;;;222.52;80.53;;;;;;;14.36;100.00;101363.47;4961226;28;20035;-74
2023/05/11 02:23:31;;;;;;;224.00;78.57;;;;;;;14.40;100.00;101363.09;4967828;28;20077;-74
2023/05/11 02:26:07;;;;;;;321.65;93.63;;;;;;;14.53;100.00;101373.88;4965966;28;20057;-75
2023/05/11 02:28:33;;;;;;;312.88;92.45;;;;;;;14.54;100.00;101370.22;4964034;28;20040;-74
2023/05/11 02:31:04;;;;;;;344.10;89.90;;;;;;;14.45;100.00;101374.38;4966719;28;20058;-75
2023/05/11 02:33:34;;;;;;;276.33;83.93;;;;;;;14.36;100.00;101368.81;4952690;28;20793;-75
2023/05/11 02:36:02;;;;;;;325.02;94.13;;;;;;;14.38;100.00;101374.94;4968288;28;21088;-74
2023/05/11 02:38:38;;;;;;;298.80;86.32;;;;;;;14.35;100.00;101381.34;4971534;28;20097;-74
2023/05/11 02:41:13;;;;;;;203.45;74.38;;;;;;;14.42;100.00;101371.94;4968719;28;20038;-74
2023/05/11 02:43:51;;;;;;;299.00;85.65;;;;;;;14.34;100.00;101376.09;4960787;28;20082;-74
2023/05/11 02:46:22;;;;;;;212.27;74.10;;;;;;;14.37;100.00;101378.59;4970075;28;22173;-74
2023/05/11 02:48:53;;;;;;;184.63;69.15;;;;;;;14.37;100.00;101371.41;4969753;28;20094;-73
2023/05/11 02:51:23;;;;;;;173.43;67.18;;;;;;;14.42;100.00;101379.97;4968503;28;20043;-74
2023/05/11 02:53:53;;;;;;;205.02;70.10;;;;;;;14.34;100.00;101373.44;4965994;28;20057;-73
2023/05/11 02:56:20;;;;;;;190.32;71.07;;;;;;;14.29;100.00;101368.38;4984819;28;20039;-74
2023/05/11 02:58:48;;;;;;;168.13;68.30;;;;;;;14.32;100.00;101370.88;4974169;28;20043;-74
2023/05/11 03:01:23;;;;;;;218.98;71.85;;;;;;;14.22;100.00;101370.66;4974572;28;20038;-75
2023/05/11 03:03:48;;;;;;;179.13;66.70;;;;;;;14.23;100.00;101375.03;4957658;28;20043;-74
2023/05/11 03:06:14;;;;;;;235.07;73.78;;;;;;;14.25;100.00;101372.25;4960945;28;20046;-74
2023/05/11 03:08:41;;;;;;;268.00;77.90;;;;;;;14.24;100.00;101375.91;4970717;28;20769;-75
2023/05/11 03:11:08;;;;;;;160.45;63.25;;;;;;;14.23;100.00;101371.50;4978828;28;20049;-73
2023/05/11 03:13:35;;;;;;;259.58;79.65;;;;;;;14.12;100.00;101369.56;4975762;28;20035;-74
2023/05/11 03:16:05;;;;;;;204.13;73.57;;;;;;;14.27;100.00;101374.84;4968022;28;20031;-74
2023/05/11 03:18:36;;;;;;;195.48;71.57;;;;;;;14.31;100.00;101371.84;4982556;28;20039;-74
2023/05/11 03:21:07;;;;;;;153.55;63.67;;;;;;;14.32;100.00;101370.88;4972077;28;20031;-74
2023/05/11 03:23:35;;;;;;;198.25;69.63;;;;;;;14.31;100.00;101369.16;4976669;28;20070;-75
2023/05/11 03:26:04;;;;;;;206.45;67.32;;;;;;;14.28;100.00;101374.72;4973108;28;20125;-73
2023/05/11 03:28:35;;;;;;;347.10;83.90;;;;;;;14.24;100.00;101368.69;4964822;28;21047;-74
2023/05/11 03:31:06;;;;;;;247.98;74.60;;;;;;;14.15;100.00;101368.50;4985181;28;20081;-74
2023/05/11 03:33:33;;;;;;;188.50;66.60;;;;;;;14.15;100.00;101366.66;4948785;28;20114;-75
2023/05/11 03:36:02;;;;;;;168.93;62.75;;;;;;;14.05;100.00;101370.94;4980801;28;20043;-74
2023/05/11 03:38:29;;;;;;;214.85;69.35;;;;;;;14.10;100.00;101373.31;4971698;28;20403;-74
2023/05/11 03:40:57;;;;;;;226.73;73.30;;;;;;;14.14;100.00;101375.69;4967199;28;20972;-74
2023/05/11 03:43:27;;;;;;;239.07;70.97;;;;;;;14.23;100.00;101372.34;4983985;28;20043;-73
2023/05/11 03:45:56;;;;;;;171.13;63.22;;;;;;;14.26;100.00;101371.31;4985457;28;20050;-73
2023/05/11 03:48:22;;;;;;;201.95;66.55;;;;;;;14.17;100.00;101367.44;4969485;28;20047;-74
2023/05/11 03:50:52;;;;;;;162.55;62.05;;;;;;;14.18;100.00;101373.66;4971348;28;20072;-74
2023/05/11 03:53:18;;;;;;;190.00;65.00;;;;;;;14.30;100.00;101371.91;4979854;28;20182;-74
2023/05/11 03:55:45;;;;;;;207.63;70.30;;;;;;;14.36;100.00;101371.50;4964831;28;20125;-74
2023/05/11 03:58:11;;;;;;;227.23;73.25;;;;;;;14.39;100.00;101372.13;4963641;28;20101;-74
2023/05/11 04:00:41;;;;;;;167.07;62.85;;;;;;;14.33;100.00;101369.03;4969219;28;20551;-74
2023/05/11 04:03:10;;;;;;;145.40;62.30;;;;;;;14.38;100.00;101364.19;4953982;28;20046;-74
2023/05/11 04:05:37;;;;;;;139.73;57.50;;;;;;;14.42;100.00;101363.88;4973702;28;20271;-74
2023/05/11 04:08:09;;;;;;;166.05;62.00;;;;;;;14.18;100.00;101366.47;4971477;28;20122;-75
2023/05/11 04:10:37;;;;;;;205.70;69.28;;;;;;;14.06;100.00;101366.47;4959355;28;20145;-74
2023/05/11 04:13:02;;;;;;;196.57;64.07;;;;;;;14.06;100.00;101371.84;4964667;28;20133;-74
2023/05/11 04:15:28;;;;;;;147.10;57.00;;;;;;;14.03;100.00;101378.25;4968686;28;20043;-74
2023/05/11 04:17:54;;;;;;;155.30;55.45;;;;;;;14.08;100.00;101367.22;4981505;28;20034;-73
2023/05/11 04:20:20;;;;;;;164.45;62.72;;;;;;;14.00;100.00;101382.00;4965475;28;20081;-74
2023/05/11 04:22:45;;;;;;;155.20;62.83;;;;;;;14.09;100.00;101376.97;4977947;28;20138;-73
2023/05/11 04:25:12;;;;;;;180.68;61.85;;;;;;;14.20;100.00;101383.28;4968057;28;20038;-74
2023/05/11 04:27:38;;;;;;;183.98;62.65;;;;;;;14.21;100.00;101373.44;4973514;28;20035;-74
2023/05/11 04:30:07;;;;;;;197.77;65.35;;;;;;;14.06;100.00;101385.25;4967590;28;20447;-73
2023/05/11 04:32:33;;;;;;;180.70;62.17;;;;;;;13.99;100.00;101384.78;4961167;28;20079;-73
2023/05/11 04:34:58;;;;;;;220.75;68.90;;;;;;;13.88;100.00;101382.00;4950300;28;20106;-74
2023/05/11 04:37:26;;;;;;;146.35;55.92;;;;;;;13.80;100.00;101395.91;4962075;28;20046;-74
2023/05/11 04:39:52;;;;;;;166.48;58.53;;;;;;;13.54;100.00;101403.03;4968034;28;20469;-73
2023/05/11 04:42:18;;;;;;;153.75;55.13;;;;;;;13.60;100.00;101397.25;4964368;28;20034;-74
2023/05/11 04:44:51;;;;;;;125.85;51.65;;;;;;;13.69;100.00;101398.47;4960105;28;20035;-73
2023/05/11 04:47:18;;;;;;;140.63;52.92;;;;;;;13.91;100.00;101397.88;4964221;28;20051;-75
2023/05/11 04:49:45;;;;;;;141.18;51.72;;;;;;;13.96;100.00;101393.91;4958042;28;20047;-74
2023/05/11 04:52:10;;;;;;;122.00;48.40;;;;;;;14.07;100.00;101400.38;4975219;28;20039;-73
2023/05/11 04:54:38;;;;;;;103.65;44.80;;;;;;;14.05;100.00;101397.78;4983499;28;20150;-74
2023/05/11 04:57:06;;;;;;;110.32;44.70;;;;;;;13.81;100.00;101388.75;4979859;28;20038;-75
2023/05/11 04:59:33;;;;;;;97.32;42.60;;;;;;;13.85;100.00;101385.72;4940723;28;20040;-72
2023/05/11 05:01:59;;;;;;;88.05;38.42;;;;;;;13.93;100.00;101394.13;4967603;28;20729;-72
2023/05/11 05:04:24;;;;;;;79.13;36.60;;;;;;;14.01;100.00;101396.28;4973178;28;20066;-75
2023/05/11 05:06:50;;;;;;;83.35;38.03;;;;;;;14.11;100.00;101392.00;4956572;28;20035;-74
2023/05/11 05:09:16;;;;;;;90.47;39.75;;;;;;;14.20;100.00;101394.03;4968429;28;20047;-73
2023/05/11 05:11:44;;;;;;;109.32;45.00;;;;;;;14.27;100.00;101390.94;4980438;28;20030;-73
2023/05/11 05:14:10;;;;;;;93.03;41.78;;;;;;;14.32;100.00;101389.66;4976980;28;20066;-71
2023/05/11 05:16:36;;;;;;;94.78;40.80;;;;;;;14.41;100.00;101391.69;4962807;28;20031;-74
2023/05/11 05:19:03;;;;;;;120.97;43.75;;;;;;;14.47;100.00;101398.44;4963948;28;20934;-71
2023/05/11 05:21:31;;;;;;;82.13;38.10;;;;;;;14.43;100.00;101395.09;4968152;28;20039;-72
2023/05/11 05:23:57;;;;;;;86.50;39.10;;;;;;;14.42;100.00;101397.91;4966633;28;20102;-73
2023/05/11 05:26:22;;;;;;;93.60;41.80;;;;;;;14.29;100.00;101395.22;4966524;28;20066;-72
2023/05/11 05:28:49;;;;;;;110.68;45.78;;;;;;;14.38;100.00;101404.44;4979956;28;20031;-73
2023/05/11 05:31:16;;;;;;;109.65;42.45;;;;;;;14.18;100.00;101412.06;4975174;28;20047;-72
2023/05/11 05:33:43;;;;;;;90.88;39.15;;;;;;;14.17;100.00;101423.75;4976416;28;20164;-73
2023/05/11 05:36:10;;;;;;;120.00;45.72;;;;;;;14.12;100.00;101423.22;4967589;28;20139;-73
2023/05/11 05:38:36;;;;;;;166.93;49.58;;;;;;;14.31;100.00;101438.03;4968028;28;20527;-72
2023/05/11 05:41:01;;;;;;;124.38;40.67;;;;;;;14.30;100.00;101437.16;4952264;28;20031;-73
2023/05/11 05:43:30;;;;;;;96.57;38.53;;;;;;;14.28;100.00;101431.06;4984408;28;20042;-72
2023/05/11 05:45:56;;;;;;;110.20;41.55;;;;;;;14.31;100.00;101438.03;4970967;28;20038;-74
2023/05/11 05:48:24;;;;;;;92.38;36.90;;;;;;;14.37;100.00;101432.25;4962167;28;20134;-71
2023/05/11 05:50:49;;;;;;;93.82;35.53;;;;;;;14.50;100.00;101433.13;4966335;28;20055;-72
2023/05/11 05:53:18;;;;;;;107.35;37.30;;;;;;;14.69;100.00;101433.53;4961077;28;20045;-71
2023/05/11 05:55:43;;;;;;;63.33;28.20;;;;;;;14.65;100.00;101426.66;4962340;28;20034;-74
2023/05/11 05:58:09;;;;;;;86.40;33.70;;;;;;;15.02;100.00;101424.91;4984674;28;20043;-71
2023/05/11 06:00:35;;;;;;;123.43;38.70;;;;;;;15.17;100.00;101432.81;4967349;28;20035;-71
2023/05/11 06:03:05;;;;;;;95.07;33.10;;;;;;;15.26;100.00;101424.06;4979647;28;20075;-72
2023/05/11 06:05:31;;;;;;;98.28;33.53;;;;;;;15.38;100.00;101425.00;4973503;28;20110;-74
2023/05/11 06:07:57;;;;;;;61.17;26.63;;;;;;;15.40;100.00;101426.56;4972891;28;20037;-73
2023/05/11 06:10:23;;;;;;;62.35;26.08;;;;;;;15.44;100.00;101427.22;4972081;28;20054;-74
2023/05/11 06:12:48;;;;;;;45.85;21.33;;;;;;;15.45;100.00;101421.72;4970590;28;20649;-72
2023/05/11 06:15:14;;;;;;;73.97;26.10;;;;;;;15.50;100.00;101424.91;4964141;28;20039;-73
2023/05/11 06:17:44;;;;;;;90.47;30.83;;;;;;;15.52;100.00;101432.88;4969658;28;20055;-73
2023/05/11 06:20:12;;;;;;;44.75;24.45;;;;;;;15.50;100.00;101434.81;4976103;28;20244;-72
2023/05/11 06:22:39;;;;;;;98.28;32.75;;;;;;;15.51;100.00;101423.09;4978118;28;20039;-73
2023/05/11 06:25:05;;;;;;;43.67;23.85;;;;;;;15.23;100.00;101425.16;4964104;28;20027;-74
2023/05/11 06:27:31;;;;;;;47.28;23.13;;;;;;;15.10;100.00;101424.31;4976912;28;20054;-73
2023/05/11 06:29:58;;;;;;;61.70;25.83;;;;;;;15.35;100.00;101425.22;4978185;28;20047;-72
2023/05/11 06:32:26;;;;;;;49.25;24.02;;;;;;;15.64;100.00;101420.38;4967225;28;20069;-73
2023/05/11 06:34:51;;;;;;;47.45;23.83;;;;;;;15.73;100.00;101427.75;4961153;28;20039;-73
2023/05/11 06:37:19;;;;;;;31.90;18.25;;;;;;;15.38;100.00;101415.09;4979780;28;20539;-73
2023/05/11 06:39:47;;;;;;;50.35;23.50;;;;;;;15.13;100.00;101412.50;4971126;28;20113;-74
2023/05/11 06:42:13;;;;;;;69.32;26.77;;;;;;;15.55;100.00;101417.38;4969150;28;20384;-73
2023/05/11 06:44:40;;;;;;;42.15;21.38;;;;;;;15.70;100.00;101417.22;4977511;28;20485;-70
2023/05/11 06:47:06;;;;;;;49.13;21.85;;;;;;;15.75;100.00;101406.97;4965871;28;20142;-73
2023/05/11 06:49:33;;;;;;;51.20;22.42;;;;;;;15.75;100.00;101405.13;4969273;28;20093;-74
2023/05/11 06:51:59;;;;;;;42.05;21.02;;;;;;;15.76;100.00;101408.69;4972954;28;20050;-74
2023/05/11 06:54:25;;;;;;;42.70;21.00;;;;;;;15.94;100.00;101418.03;4964293;28;20043;-73
2023/05/11 06:56:50;;;;;;;35.38;19.10;;;;;;;16.30;100.00;101416.16;4958964;28;20046;-73
2023/05/11 06:59:16;;;;;;;29.02;16.98;;;;;;;16.49;100.00;101420.97;4960315;28;20862;-71
2023/05/11 07:01:43;;;;;;;24.23;15.05;;;;;;;16.68;100.00;101415.84;4960301;28;20086;-71
2023/05/11 07:04:09;;;;;;;26.27;16.15;;;;;;;17.37;100.00;101420.16;4963023;28;20745;-73
2023/05/11 07:06:35;;;;;;;22.05;14.38;;;;;;;17.88;100.00;101412.28;4982477;28;20066;-72
2023/05/11 07:09:02;;;;;;;21.45;14.27;;;;;;;18.17;100.00;101406.22;4969635;28;20038;-72
2023/05/11 07:11:29;;;;;;;21.45;13.48;;;;;;;18.19;100.00;101404.25;4970224;28;20039;-72
2023/05/11 07:13:55;;;;;;;23.52;14.63;;;;;;;18.41;100.00;101409.47;4969252;28;20085;-73
2023/05/11 07:16:22;;;;;;;24.35;15.48;;;;;;;18.13;100.00;101411.03;4963962;28;20513;-73
2023/05/11 07:18:47;;;;;;;24.27;15.32;;;;;;;18.12;100.00;101412.00;4965122;28;20039;-73
2023/05/11 07:21:13;;;;;;;20.15;13.27;;;;;;;18.53;100.00;101411.13;4966401;28;20041;-73
2023/05/11 07:23:39;;;;;;;20.85;12.55;;;;;;;18.56;100.00;101407.28;4965849;28;20031;-74
2023/05/11 07:26:08;;;;;;;18.73;12.55;;;;;;;18.73;100.00;101404.00;4979967;28;21001;-73
2023/05/11 07:28:35;;;;;;;19.15;13.73;;;;;;;18.72;100.00;101406.81;4964541;28;20035;-74
2023/05/11 07:31:01;;;;;;;22.40;12.90;;;;;;;19.00;100.00;101408.78;4967663;28;20051;-72
2023/05/11 07:33:27;;;;;;;20.90;13.05;;;;;;;18.66;100.00;101408.19;4964557;28;20464;-72
2023/05/11 07:35:53;;;;;;;20.38;13.55;;;;;;;18.18;100.00;101411.50;4969049;28;20039;-71
2023/05/11 07:38:18;;;;;;;19.00;12.98;;;;;;;17.60;100.00;101413.72;4959671;28;20885;-72
2023/05/11 07:40:44;;;;;;;19.58;10.93;;;;;;;17.02;100.00;101416.72;4970369;28;20035;-72
2023/05/11 07:43:10;;;;;;;18.98;12.73;;;;;;;16.80;100.00;101417.56;4971957;28;20710;-71
2023/05/11 07:45:36;;;;;;;12.90;8.40;;;;;;;17.43;100.00;101417.84;4979879;28;20078;-73
2023/05/11 07:48:01;;;;;;;10.57;8.13;;;;;;;17.46;100.00;101411.31;4974028;28;20046;-71
2023/05/11 07:50:27;;;;;;;13.82;9.40;;;;;;;17.15;100.00;101413.84;4979958;28;20093;-73
2023/05/11 07:52:52;;;;;;;14.00;8.63;;;;;;;17.47;100.00;101413.03;4965799;28;20578;-73
2023/05/11 07:55:18;;;;;;;10.73;7.35;;;;;;;17.31;100.00;101416.13;4978890;28;21057;-71
2023/05/11 07:57:44;;;;;;;12.20;7.97;;;;;;;16.92;100.00;101423.81;4970122;28;20038;-72
2023/05/11 08:00:10;;;;;;;12.70;7.20;;;;;;;17.14;100.00;101417.53;4969824;28;20037;-72
2023/05/11 08:02:39;;;;;;;11.23;8.15;;;;;;;17.61;100.00;101413.56;4976300;28;20039;-72
2023/05/11 08:05:07;;;;;;;13.45;8.18;;;;;;;17.88;100.00;101422.22;4965436;28;20049;-72
2023/05/11 08:07:33;;;;;;;15.77;9.07;;;;;;;18.08;100.00;101424.94;4966176;28;20031;-72
2023/05/11 08:09:59;;;;;;;11.52;6.68;;;;;;;17.52;100.00;101418.88;4960803;28;20055;-71
2023/05/11 08:12:24;;;;;;;13.73;6.15;;;;;;;17.87;100.00;101418.66;4976864;28;20506;-72
2023/05/11 08:14:50;;;;;;;15.07;8.98;;;;;;;18.07;100.00;101414.25;4981085;28;20197;-74
2023/05/11 08:17:15;;;;;;;6.85;4.68;;;;;;;18.16;100.00;101415.31;4966043;28;20203;-74
2023/05/11 08:19:41;;;;;;;10.88;5.82;;;;;;;18.19;100.00;101415.06;4956203;28;20039;-74
2023/05/11 08:22:06;;;;;;;6.00;3.50;;;;;;;17.59;100.00;101422.81;4966118;28;20046;-74
2023/05/11 08:24:33;;;;;;;5.55;3.58;;;;;;;17.54;100.00;101423.19;4984920;28;20038;-74
2023/05/11 08:26:58;;;;;;;3.05;2.47;;;;;;;17.51;100.00;101423.44;4967217;28;20102;-73
2023/05/11 08:29:26;;;;;;;4.32;3.30;;;;;;;17.17;100.00;101427.19;4962487;28;20260;-74
2023/05/11 08:31:52;;;;;;;2.95;2.08;;;;;;;17.98;100.00;101425.84;4978932;28;20146;-73
2023/05/11 08:34:18;;;;;;;3.22;2.40;;;;;;;18.03;100.00;101427.16;4973649;28;20525;-73
2023/05/11 08:36:43;;;;;;;4.82;2.80;;;;;;;17.95;100.00;101432.34;4956140;28;20054;-74
2023/05/11 08:39:09;;;;;;;4.20;2.58;;;;;;;18.21;100.00;101429.25;4980635;28;20036;-74
2023/05/11 08:41:35;;;;;;;4.93;2.78;;;;;;;18.26;100.00;101432.41;4967156;28;20026;-73
2023/05/11 08:44:01;;;;;;;5.95;3.22;;;;;;;18.24;100.00;101429.00;4978950;28;20461;-74
2023/05/11 08:46:34;;;;;;;4.28;3.42;;;;;;;18.22;100.00;101429.13;4968422;28;20035;-74
2023/05/11 08:49:00;;;;;;;5.95;4.03;;;;;;;18.30;100.00;101423.94;4979722;28;20047;-73
2023/05/11 08:51:27;;;;;;;6.72;3.50;;;;;;;18.00;100.00;101432.81;4968864;28;20047;-73
2023/05/11 08:53:53;;;;;;;4.63;3.90;;;;;;;16.88;100.00;101438.53;4960244;28;20082;-73
2023/05/11 08:56:21;;;;;;;7.35;5.10;;;;;;;17.71;100.00;101427.16;4968195;28;20035;-74
2023/05/11 08:58:46;;;;;;;5.78;4.68;;;;;;;18.48;100.00;101421.47;4967760;28;20046;-73
2023/05/11 09:01:13;;;;;;;5.53;4.85;;;;;;;18.70;100.00;101431.28;4964140;28;20069;-73
2023/05/11 09:03:40;;;;;;;10.90;5.80;;;;;;;18.82;100.00;101430.19;4957389;28;20093;-74
2023/05/11 09:06:07;;;;;;;7.57;5.85;;;;;;;18.80;100.00;101428.63;4982827;28;20050;-74
2023/05/11 09:08:37;;;;;;;6.32;5.00;;;;;;;18.81;100.00;101430.31;4972203;28;20046;-74
2023/05/11 09:11:03;;;;;;;10.70;6.03;;;;;;;18.41;100.00;101417.59;4972337;28;20039;-73
2023/05/11 09:13:35;;;;;;;8.25;5.57;;;;;;;19.36;100.00;101419.94;4967603;28;20189;-73
2023/05/11 09:16:01;;;;;;;8.93;6.35;;;;;;;19.55;100.00;101419.13;4966144;28;20076;-73
2023/05/11 09:18:26;;;;;;;7.80;5.53;;;;;;;19.82;100.00;101419.28;4963777;28;20039;-71
2023/05/11 09:20:52;;;;;;;13.88;7.05;;;;;;;19.10;100.00;101417.75;4962472;28;20404;-73
2023/05/11 09:23:23;;;;;;;10.32;7.07;;;;;;;19.05;100.00;101421.88;4961073;28;20039;-74
2023/05/11 09:25:49;;;;;;;8.95;6.97;;;;;;;18.85;100.00;101421.81;4978863;28;21017;-73
2023/05/11 09:28:19;;;;;;;14.13;7.95;;;;;;;19.08;100.00;101430.56;4968689;28;20043;-73
2023/05/11 09:30:44;;;;;;;12.85;8.63;;;;;;;19.80;100.00;101425.84;4970296;28;20039;-71
2023/05/11 09:33:10;;;;;;;11.65;8.07;;;;;;;19.83;98.72;101422.84;4973031;28;20787;-74
2023/05/11 09:35:36;;;;;;;9.63;7.28;;;;;;;19.74;98.75;101429.13;4980481;28;20508;-74
2023/05/11 09:38:07;;;;;;;10.88;7.43;;;;;;;20.21;97.33;101421.09;4948581;28;20047;-72
2023/05/11 09:40:51;;;;;;;10.05;7.00;;;;;;;20.41;96.97;101429.03;4956593;28;20039;-73
2023/05/11 09:43:22;;;;;;;9.55;6.32;;;;;;;19.83;94.74;101430.97;4964931;28;20031;-73
2023/05/11 09:45:50;;;;;;;10.57;7.90;;;;;;;19.81;100.00;101432.97;4966302;28;20129;-72
2023/05/11 09:48:19;;;;;;;13.00;8.82;;;;;;;20.29;95.64;101429.38;4967573;28;20109;-72
2023/05/11 09:50:46;;;;;;;10.35;7.78;;;;;;;19.15;93.48;101428.16;4964744;28;20054;-72
2023/05/11 09:53:12;;;;;;;15.35;9.57;;;;;;;20.14;95.58;101429.81;4964009;28;20043;-73
2023/05/11 09:55:37;;;;;;;14.18;9.13;;;;;;;20.22;92.44;101428.22;4966304;28;20039;-71
2023/05/11 09:58:03;;;;;;;12.93;9.05;;;;;;;20.36;91.93;101425.06;4960592;28;20062;-72
2023/05/11 10:00:30;;;;;;;14.15;9.52;;;;;;;20.22;84.74;101420.94;4964698;28;20046;-74
2023/05/11 10:03:06;;;;;;;15.40;9.05;;;;;;;20.59;88.52;101426.47;4966373;28;20563;-73
2023/05/11 10:05:35;;;;;;;13.35;9.15;;;;;;;20.59;89.21;101428.31;4966939;28;20051;-73
2023/05/11 10:08:02;;;;;;;13.38;9.05;;;;;;;20.95;90.43;101432.00;4965404;28;20121;-73
2023/05/11 10:10:31;;;;;;;12.93;8.82;;;;;;;21.10;87.66;101432.38;4978282;28;20569;-72
2023/05/11 10:12:58;;;;;;;14.18;8.50;;;;;;;20.73;84.00;101427.81;4968354;28;21000;-75
2023/05/11 10:15:25;;;;;;;11.50;7.93;;;;;;;20.89;86.63;101424.47;4967003;28;20840;-74
2023/05/11 10:17:53;;;;;;;11.10;8.00;;;;;;;21.10;88.88;101411.50;4963747;28;20051;-74
2023/05/11 10:20:20;;;;;;;10.98;8.32;;;;;;;20.77;87.74;101423.81;4971769;28;20069;-73
2023/05/11 10:22:46;;;;;;;13.63;9.30;;;;;;;20.94;93.27;101422.19;4963815;28;21019;-73
2023/05/11 10:25:13;;;;;;;13.15;8.38;;;;;;;20.56;87.05;101417.75;4966119;28;20040;-74
2023/05/11 10:27:39;;;;;;;11.48;7.93;;;;;;;20.64;88.85;101423.31;4964138;28;20085;-73
2023/05/11 10:30:07;;;;;;;10.27;7.10;;;;;;;20.44;86.27;101423.34;4980595;28;20552;-72
2023/05/11 10:32:38;;;;;;;9.30;7.00;;;;;;;20.45;88.55;101421.47;4964530;28;20042;-74
2023/05/11 10:35:05;;;;;;;12.07;7.88;;;;;;;19.62;95.72;101423.00;4961634;28;20039;-72
2023/05/11 10:37:34;;;;;;;9.30;7.18;;;;;;;19.00;100.00;101425.00;4987359;28;20043;-71
2023/05/11 10:40:00;;;;;;;10.98;8.35;;;;;;;18.66;100.00;101423.53;4975173;28;20576;-73
2023/05/11 10:42:38;;;;;;;13.45;8.52;;;;;;;18.25;100.00;101436.13;4960748;28;20035;-71
2023/05/11 10:45:06;;;;;;;12.75;8.82;;;;;;;18.54;100.00;101425.50;4983370;28;20040;-73
2023/05/11 10:47:41;;;;;;;13.32;9.60;;;;;;;18.67;100.00;101428.78;4971465;28;20051;-71
2023/05/11 10:50:58;;;;;;;13.95;9.55;;;;;;;18.64;100.00;101429.09;4977237;28;20051;-70
2023/05/11 10:54:01;;;;;;;20.70;13.55;;;;;;;18.50;100.00;101427.59;4963829;28;20042;-71
2023/05/11 10:56:48;;;;;;;25.73;15.98;;;;;;;18.54;100.00;101428.19;4969727;28;20042;-73
2023/05/11 10:59:32;;;;;;;27.65;18.48;;;;;;;18.55;100.00;101425.34;4967871;28;20043;-71
2023/05/11 11:02:00;;;;;;;26.55;18.10;;;;;;;18.69;100.00;101443.09;4963838;28;20031;-72
2023/05/11 11:04:44;;;;;;;27.23;18.75;;;;;;;18.69;100.00;101439.53;4953982;28;20051;-72
2023/05/11 11:07:10;;;;;;;29.67;19.08;;;;;;;18.69;100.00;101440.38;4965007;28;21542;-74